Terminal Aerodrome Forecast
Issued by NWS

Home | Current Version | Previous Version | Text Only | Print | Product List | Glossary On
Versions: 1 2 3 4 5 6 7 8 9 10 11 12 13 14 15 16 17 18 19 20 21 22 23 24
000
FTUS46 KMFR 011200 AAA
TAFRBG
TAF AMD
KRBG 011239Z 0113/0212 00000KT 4SM BR SCT003 OVC012
     FM011700 01004KT P6SM FEW015
     FM012000 36009KT P6SM SKC
     FM020400 36004KT P6SM SKC=

USA.gov is the U.S. government's official web portal to all federal, state and local government web resources and services.